This is the latest recevied weather packets stored in our database for station/object K3BAY-1. If no packets are shown the sender has not sent any weather packets the latest 10 day(s).
| Time | Temp. | Humidity | Pressure | Rain* | Wind** | Luminosity | Snow |
|---|---|---|---|---|---|---|---|
| 1777642262 | 11.67° C | 66% | 1013.6 hPa | 0 mm | - | 41 W/m² | - |
| 1777641959 | 11.67° C | 66% | 1013.6 hPa | 0 mm | - | 41 W/m² | - |
| 1777641655 | 11.67° C | 66% | 1013.6 hPa | 0 mm | - | 41 W/m² | - |
| 1777641350 | 11.67° C | 65% | 1013.6 hPa | 0 mm | - | 40 W/m² | - |
| 1777641046 | 11.67° C | 65% | 1013.6 hPa | 0 mm | - | 40 W/m² | - |
| 1777640742 | 12.22° C | 68% | 1013.6 hPa | 0 mm | - | 39 W/m² | - |
| 1777640439 | 12.22° C | 69% | 1013.6 hPa | 0 mm | - | 39 W/m² | - |
| 1777640136 | 12.22° C | 67% | 1013.9 hPa | 0 mm | - | 39 W/m² | - |
| 1777639833 | 12.22° C | 67% | 1013.9 hPa | 0 mm | - | 39 W/m² | - |
| 1777639530 | 11.67° C | 70% | 1014.2 hPa | 0 mm | - | 38 W/m² | - |
| 1777639226 | 11.11° C | 71% | 1013.9 hPa | 0 mm | - | 38 W/m² | - |
| 1777638828 | 10.56° C | 73% | 1012.6 hPa | 0 mm | - | 37 W/m² | - |
| 1777638524 | 10.56° C | 73% | 1012.6 hPa | 0 mm | - | 37 W/m² | - |
| 1777638221 | 10.56° C | 73% | 1012.6 hPa | 0 mm | - | 37 W/m² | - |
| 1777637917 | 10.56° C | 75% | 1012.2 hPa | 0 mm | - | 35 W/m² | - |
| 1777637613 | 10.56° C | 75% | 1012.2 hPa | 0 mm | - | 35 W/m² | - |
| 1777637310 | 10.56° C | 75% | 1012.2 hPa | 0 mm | - | 35 W/m² | - |
| 1777636967 | 9.44° C | 77% | 1012.2 hPa | 0 mm | - | 33 W/m² | - |
| 1777636663 | 9.44° C | 77% | 1012.2 hPa | 0 mm | - | 33 W/m² | - |
| 1777636360 | 9.44° C | 78% | 1012.6 hPa | 0 mm | - | 32 W/m² | - |
| 1777636059 | 8.33° C | 82% | 1012.9 hPa | 0 mm | - | 31 W/m² | - |
| 1777635756 | 8.33° C | 82% | 1012.9 hPa | 0 mm | - | 31 W/m² | - |
| 1777635453 | 8.33° C | 83% | 1012.6 hPa | 0 mm | - | 31 W/m² | - |
| 1777635149 | 7.78° C | 86% | 1011.5 hPa | 0 mm | - | 32 W/m² | - |
| 1777634845 | 6.67° C | 90% | 1011.5 hPa | 0 mm | - | 29 W/m² | - |
* Rain latest hour (hover to see other rain measurements)
** Current wind speed in m/s (hover to see current wind gust speed)